M I D A S
Marine Information and Data Acquisition System
Tripno 1147 of the Zeeleeuw from 2006-08-17 06:46:29 to 2006-08-17 13:01:26
Back to CruiseResearch ActivitiesStationsMapUnderway DataData graphs

EquipmentUnitsComment
TimeDGPSUTC
LatitudeDGPSDM.mWGS84
LongitudeDGPSDM.mWGS84
HeadingGyrodeg 
SOGDGPSknotsSpeed over ground
COGDGPSdegCourse over ground
DepthEcho soundermeters200 kHz
Missing or incorrect values are displayed as -999
Navigation data collected by the RV Zeeleeuw from 2006-08-17 06:44:46 to 2006-08-17 13:12:28
Time Latitude Longitude Heading SOG COG Depth
2006-08-17 06:45:52 51°13.613 2°56.027 107.1 3.6 285 -999
2006-08-17 06:46:51 51°13.641 2°55.928 124.1 4.7 301 -999
2006-08-17 06:47:52 51°13.687 2°55.827 125.7 4.5 305 -999
2006-08-17 06:48:51 51°13.717 2°55.734 104.5 3.3 288 -999
2006-08-17 06:49:50 51°13.732 2°55.724 43.5 1.3 28 12.8
2006-08-17 06:50:51 51°13.72 2°55.714 12.9 0.1 301 -999
2006-08-17 06:51:50 51°13.748 2°55.699 338.6 2.8 337 12.4
2006-08-17 06:52:51 51°13.806 2°55.655 335.3 4.3 333 12.7
2006-08-17 06:53:51 51°13.875 2°55.601 336.7 4.9 334 12.1
2006-08-17 06:54:51 51°13.951 2°55.543 337.5 5.1 335 13
2006-08-17 06:55:50 51°14.028 2°55.488 338.2 5.2 335 12.4
2006-08-17 06:56:51 51°14.123 2°55.414 334.2 7 331 12.3
2006-08-17 06:57:51 51°14.226 2°55.309 325.9 7.5 323 12.3
2006-08-17 06:58:51 51°14.323 2°55.16 315.7 8.5 313 12.5
2006-08-17 06:59:51 51°14.419 2°54.959 305.4 10 303 12.8
2006-08-17 07:00:51 51°14.558 2°54.786 327.1 11 330 11.6
2006-08-17 07:01:51 51°14.72 2°54.645 322.9 11 325 11.5
2006-08-17 07:02:50 51°14.862 2°54.455 315.6 11.7 319 11.2
2006-08-17 07:03:51 51°14.989 2°54.214 300.1 11.7 302 10.8
2006-08-17 07:04:51 51°15.087 2°53.94 299.3 12 300 11
2006-08-17 07:05:51 51°15.195 2°53.672 304.9 12.1 307 11.7
2006-08-17 07:06:50 51°15.309 2°53.419 303.3 11.9 305 12.2
2006-08-17 07:07:51 51°15.398 2°53.138 290.1 11.6 291 12.6
2006-08-17 07:08:51 51°15.479 2°52.857 296.4 11.7 298 12.9
2006-08-17 07:09:51 51°15.562 2°52.579 289.2 11.6 290 13.5
2006-08-17 07:10:51 51°15.625 2°52.29 288 11.5 290 13.9
2006-08-17 07:11:51 51°15.706 2°52.008 294.3 11.6 296 14.3
2006-08-17 07:12:51 51°15.775 2°51.726 288.1 11.4 291 14.5
2006-08-17 07:13:51 51°15.849 2°51.446 288.8 11.5 291 14.7
2006-08-17 07:14:51 51°15.907 2°51.156 285.4 11.5 287 14.7
2006-08-17 07:15:51 51°15.961 2°50.865 285.4 11.4 287 14.8
2006-08-17 07:16:51 51°16.013 2°50.574 284.5 11.4 285 13.4
2006-08-17 07:17:51 51°16.054 2°50.279 281.5 11.5 283 11.9
2006-08-17 07:18:51 51°16.104 2°49.985 284.3 11.4 285 12.5
2006-08-17 07:19:51 51°16.153 2°49.692 283.7 11.4 284 13.1
2006-08-17 07:20:51 51°16.193 2°49.397 278.9 11.4 281 13.8
2006-08-17 07:21:51 51°16.249 2°49.108 284.2 11.2 286 15.7
2006-08-17 07:22:51 51°16.289 2°48.822 279.1 11 281 17.2
2006-08-17 07:23:51 51°16.34 2°48.538 286.1 11.2 288 17.2
2006-08-17 07:24:51 51°16.385 2°48.253 279.5 11.1 282 15.3
2006-08-17 07:25:51 51°16.438 2°47.969 286.2 11.2 289 12.8
2006-08-17 07:26:51 51°16.494 2°47.684 284.6 11.3 287 11.7
2006-08-17 07:27:51 51°16.545 2°47.397 284.1 11.3 288 10.6
2006-08-17 07:28:51 51°16.608 2°47.11 286.9 11.5 290 10.7
2006-08-17 07:29:51 51°16.67 2°46.821 284.8 11.6 289 10.7
2006-08-17 07:30:50 51°16.73 2°46.537 284.8 11.5 288 10.3
2006-08-17 07:31:51 51°16.818 2°46.254 294.6 11.8 298 10.8
2006-08-17 07:32:51 51°16.906 2°45.972 293.1 11.9 296 13.2
2006-08-17 07:33:51 51°16.996 2°45.69 295.8 12 298 14
2006-08-17 07:34:51 51°17.09 2°45.41 295.6 12 298 14.6
2006-08-17 07:35:51 51°17.183 2°45.132 296.3 11.8 299 14.6
2006-08-17 07:36:51 51°17.273 2°44.857 294 11.6 297 17.7
2006-08-17 07:37:51 51°17.364 2°44.583 296.1 11.8 299 17.8
2006-08-17 07:38:51 51°17.454 2°44.305 296.1 11.8 299 18.4
2006-08-17 07:39:51 51°17.543 2°44.025 295 11.8 297 18
2006-08-17 07:40:51 51°17.631 2°43.747 292.2 11.7 294 14.9
2006-08-17 07:41:50 51°17.719 2°43.476 296.1 11.7 299 13.3
2006-08-17 07:42:51 51°17.821 2°43.206 299 11.7 301 14.4
2006-08-17 07:43:50 51°17.922 2°42.94 297.8 12 301 23.5
2006-08-17 07:44:51 51°18.023 2°42.657 293 12 298 25
2006-08-17 07:45:51 51°18.121 2°42.38 296.1 11.8 298 25.5
2006-08-17 07:46:51 51°18.216 2°42.108 299.7 11.8 302 25.2
2006-08-17 07:47:51 51°18.318 2°41.84 298.2 11.8 301 24.6
2006-08-17 07:48:51 51°18.414 2°41.567 299 11.8 301 23.3
2006-08-17 07:49:50 51°18.513 2°41.305 298.2 11.6 300 21.8
2006-08-17 07:50:51 51°18.622 2°41.042 309.3 11.9 312 17.7
2006-08-17 07:51:51 51°18.759 2°40.814 311.3 11.9 315 18.6
2006-08-17 07:52:50 51°18.886 2°40.582 304.8 11.8 308 20.1
2006-08-17 07:53:51 51°19.017 2°40.338 307.9 12.1 310 21.1
2006-08-17 07:54:50 51°19.146 2°40.094 307 12.2 310 23.6
2006-08-17 07:55:51 51°19.272 2°39.833 305.3 12.3 309 26.4
2006-08-17 07:56:51 51°19.406 2°39.583 305.5 12.4 309 29.8
2006-08-17 07:57:49 51°19.532 2°39.336 302.9 12.3 307 31
2006-08-17 07:58:51 51°19.636 2°39.049 295.2 11.9 298 28.7
2006-08-17 07:59:51 51°19.745 2°38.778 301.7 12 302 25.8
2006-08-17 08:00:51 51°19.821 2°38.488 287.4 11.8 289 24.5
2006-08-17 08:01:51 51°19.892 2°38.194 290.5 11.8 291 24
2006-08-17 08:02:51 51°19.949 2°37.899 286.3 11.6 287 24.3
2006-08-17 08:03:51 51°20.014 2°37.623 288.7 10.6 290 24
2006-08-17 08:04:51 51°20.053 2°37.408 277.1 6.2 280 23.9
2006-08-17 08:05:51 51°20.067 2°37.293 279.8 3.9 290 23.9
2006-08-17 08:06:51 51°20.087 2°37.2 277.4 3.6 285 22.3
2006-08-17 08:07:51 51°20.092 2°37.144 239.1 0.4 323 23.3
2006-08-17 08:08:51 51°20.106 2°37.154 229.5 1.1 30 21.2
2006-08-17 08:09:51 51°20.123 2°37.173 238.3 1.2 39 23
2006-08-17 08:10:50 51°20.133 2°37.184 234 0.1 357 23.4
2006-08-17 08:11:51 51°20.131 2°37.177 223.4 0.3 245 23.1
2006-08-17 08:12:50 51°20.13 2°37.174 215.5 -999 144 23.2
2006-08-17 08:13:49 51°20.131 2°37.176 212.5 0.2 71 23.1
2006-08-17 08:14:51 51°20.132 2°37.18 212.1 -999 83 23.5
2006-08-17 08:15:50 51°20.131 2°37.181 211.9 0.1 204 23.5
2006-08-17 08:16:50 51°20.13 2°37.18 213.3 0.1 238 23.3
2006-08-17 08:17:50 51°20.129 2°37.18 213.1 -999 154 23.2
2006-08-17 08:18:50 51°20.129 2°37.181 211.2 -999 32 23.3
2006-08-17 08:19:50 51°20.13 2°37.183 211.9 0.1 85 23.4
2006-08-17 08:20:50 51°20.13 2°37.182 215 -999 300 23.4
2006-08-17 08:21:50 51°20.13 2°37.179 217.7 0.1 273 23.2
2006-08-17 08:22:51 51°20.131 2°37.178 214.4 -999 48 23.1
2006-08-17 08:23:50 51°20.131 2°37.179 211.1 0.1 19 23.1
2006-08-17 08:24:51 51°20.131 2°37.179 211.9 -999 82 23.3
2006-08-17 08:25:51 51°20.132 2°37.179 212.2 -999 124 23.3
2006-08-17 08:26:51 51°20.132 2°37.178 213.1 0.1 299 23.2
2006-08-17 08:27:50 51°20.132 2°37.176 215.4 -999 116 -999
2006-08-17 08:28:50 51°20.132 2°37.175 216.2 -999 267 22.9
2006-08-17 08:29:50 51°20.132 2°37.175 213.2 -999 320 23
2006-08-17 08:30:51 51°20.133 2°37.176 207.3 0.1 74 22.9
2006-08-17 08:31:51 51°20.131 2°37.178 203.3 0.2 134 23.1
2006-08-17 08:32:51 51°20.13 2°37.18 205.1 0.1 145 23.1
2006-08-17 08:33:51 51°20.129 2°37.18 207.8 0.1 186 23
2006-08-17 08:34:51 51°20.129 2°37.181 208.8 -999 238 23
2006-08-17 08:35:51 51°20.129 2°37.182 211.4 0.1 305 23.1
2006-08-17 08:36:51 51°20.129 2°37.181 217.7 0.2 323 23.1
2006-08-17 08:37:50 51°20.131 2°37.178 222.8 0.2 315 23.1
2006-08-17 08:38:51 51°20.133 2°37.175 221.1 0.1 282 22.8
2006-08-17 08:39:51 51°20.133 2°37.171 217 0.1 272 22.9
2006-08-17 08:40:50 51°20.134 2°37.168 214.7 0.1 295 23.1
2006-08-17 08:41:51 51°20.134 2°37.167 209.2 0.1 297 23
2006-08-17 08:42:51 51°20.135 2°37.167 206.1 -999 354 23
2006-08-17 08:43:51 51°20.135 2°37.166 206.3 0.1 287 22.9
2006-08-17 08:44:51 51°20.136 2°37.165 206.2 0.1 251 22.9
2006-08-17 08:45:50 51°20.136 2°37.164 201.9 -999 304 22.9
2006-08-17 08:46:50 51°20.135 2°37.163 200.4 0.1 243 22.9
2006-08-17 08:47:50 51°20.136 2°37.163 199.4 0.1 310 22.7
2006-08-17 08:48:51 51°20.136 2°37.162 201 -999 38 22.6
2006-08-17 08:49:50 51°20.136 2°37.161 199.2 -999 213 22.5
2006-08-17 08:50:51 51°20.134 2°37.161 195.7 -999 155 22.5
2006-08-17 08:51:50 51°20.135 2°37.162 191.6 0.1 104 22.6
2006-08-17 08:52:50 51°20.136 2°37.164 191.3 0.1 71 22.9
2006-08-17 08:53:50 51°20.136 2°37.164 195.2 -999 334 22.7
2006-08-17 08:54:50 51°20.136 2°37.163 198.5 0.1 258 22.7
2006-08-17 08:55:51 51°20.135 2°37.161 199.9 0.1 281 22.5
2006-08-17 08:56:49 51°20.136 2°37.159 200.9 0.1 298 22.6
2006-08-17 08:57:50 51°20.136 2°37.158 197 -999 255 22.8
2006-08-17 08:58:50 51°20.137 2°37.158 193.5 0.1 304 22.7
2006-08-17 08:59:51 51°20.137 2°37.159 191.6 -999 292 22.5
2006-08-17 09:00:51 51°20.137 2°37.159 191.3 0.1 261 22.5
2006-08-17 09:01:51 51°20.137 2°37.158 191.6 0.1 294 22.5
2006-08-17 09:02:50 51°20.137 2°37.158 190.3 -999 345 22.6
2006-08-17 09:03:49 51°20.138 2°37.157 191.8 0.1 321 22.5
2006-08-17 09:04:50 51°20.138 2°37.154 194.3 0.1 280 22.6
2006-08-17 09:05:49 51°20.137 2°37.152 189.9 0.1 211 22.5
2006-08-17 09:06:51 51°20.137 2°37.15 185.8 0.1 69 22.3
2006-08-17 09:07:51 51°20.139 2°37.149 183 0.1 321 22.4
2006-08-17 09:08:49 51°20.139 2°37.15 180.9 0.4 83 22.5
2006-08-17 09:09:50 51°20.138 2°37.152 179.3 0.1 127 22.5
2006-08-17 09:10:51 51°20.137 2°37.152 181.8 -999 243 22.5
2006-08-17 09:11:50 51°20.138 2°37.152 181.8 -999 315 22.5
2006-08-17 09:12:49 51°20.139 2°37.152 182.6 -999 272 22.5
2006-08-17 09:13:51 51°20.139 2°37.151 182.6 0.1 116 22.5
2006-08-17 09:14:51 51°20.138 2°37.151 180 0.1 186 22.4
2006-08-17 09:15:51 51°20.138 2°37.152 178.2 0.1 23 22.4
2006-08-17 09:16:50 51°20.139 2°37.154 178.7 0.1 35 22.5
2006-08-17 09:17:49 51°20.139 2°37.154 178.3 0.1 205 22.6
2006-08-17 09:18:51 51°20.138 2°37.155 177.1 0.2 254 22.6
2006-08-17 09:19:50 51°20.137 2°37.156 177.7 0.1 81 22.5
2006-08-17 09:20:51 51°20.137 2°37.156 179.2 -999 358 22.5
2006-08-17 09:21:50 51°20.138 2°37.155 182.7 -999 286 22.5
2006-08-17 09:22:51 51°20.138 2°37.152 187.3 0.1 263 22.4
2006-08-17 09:23:50 51°20.137 2°37.149 190.7 0.1 229 21.9
2006-08-17 09:24:49 51°20.136 2°37.146 188 0.1 247 22
2006-08-17 09:25:51 51°20.136 2°37.145 182.1 0.1 59 22.1
2006-08-17 09:26:50 51°20.136 2°37.147 174.1 0.2 83 21.9
2006-08-17 09:27:49 51°20.137 2°37.149 168.3 0.2 76 22.2
2006-08-17 09:28:51 51°20.137 2°37.153 167.3 0.2 93 22.4
2006-08-17 09:29:50 51°20.137 2°37.154 176.2 0.1 172 22.4
2006-08-17 09:30:49 51°20.137 2°37.153 185.2 0.2 290 22.3
2006-08-17 09:31:50 51°20.138 2°37.15 192.9 0.1 295 22.1
2006-08-17 09:32:50 51°20.137 2°37.146 189.2 0.2 254 21.8
2006-08-17 09:33:51 51°20.136 2°37.143 182.6 0.1 252 22
2006-08-17 09:34:51 51°20.136 2°37.143 174.3 0.1 76 22
2006-08-17 09:35:50 51°20.137 2°37.147 161.8 0.1 83 21.8
2006-08-17 09:36:50 51°20.137 2°37.152 158.2 0.2 152 22.2
2006-08-17 09:37:50 51°20.135 2°37.154 169.5 0.1 144 22.3
2006-08-17 09:38:50 51°20.134 2°37.153 179.2 0.1 128 22.2
2006-08-17 09:39:50 51°20.136 2°37.152 182.3 0.1 4 22.1
2006-08-17 09:40:51 51°20.138 2°37.15 185 0.1 300 22.1
2006-08-17 09:41:50 51°20.136 2°37.146 186.1 0.2 251 21.7
2006-08-17 09:42:51 51°20.134 2°37.142 184.4 0.1 260 21.8
2006-08-17 09:43:50 51°20.135 2°37.139 176.3 0.1 24 21.6
2006-08-17 09:44:51 51°20.136 2°37.14 163 0.1 38 21.7
2006-08-17 09:45:51 51°20.137 2°37.143 152.7 0.1 93 22
2006-08-17 09:46:49 51°20.137 2°37.146 150.5 0.1 140 21.7
2006-08-17 09:47:50 51°20.137 2°37.15 156.5 0.1 106 22
2006-08-17 09:48:50 51°20.136 2°37.151 167.4 0.1 264 22
2006-08-17 09:49:51 51°20.136 2°37.148 178.8 0.2 256 21.6
2006-08-17 09:50:51 51°20.136 2°37.143 187.4 0.1 271 21.8
2006-08-17 09:51:51 51°20.134 2°37.139 183.7 0.1 226 21.5
2006-08-17 09:52:49 51°20.133 2°37.136 173.4 0.2 239 21.3
2006-08-17 09:53:51 51°20.131 2°37.133 167.6 0.1 228 21.2
2006-08-17 09:54:49 51°20.132 2°37.132 160 -999 29 21.2
2006-08-17 09:55:50 51°20.133 2°37.131 151 0.1 20 21.3
2006-08-17 09:56:51 51°20.135 2°37.133 145.3 -999 314 21.5
2006-08-17 09:57:50 51°20.136 2°37.136 144.4 0.1 116 21.2
2006-08-17 09:58:49 51°20.135 2°37.138 148.2 0.1 123 21.3
2006-08-17 09:59:51 51°20.135 2°37.139 151.9 0.1 166 21.4
2006-08-17 10:00:50 51°20.134 2°37.14 154.8 0.1 104 21.4
2006-08-17 10:01:51 51°20.134 2°37.14 156.6 -999 327 21.3
2006-08-17 10:02:50 51°20.135 2°37.139 158.4 0.1 343 21.2
2006-08-17 10:03:51 51°20.135 2°37.138 158.9 -999 39 21.1
2006-08-17 10:04:50 51°20.135 2°37.137 157.5 -999 186 21.1
2006-08-17 10:05:51 51°20.134 2°37.136 156.1 0.1 242 21.1
2006-08-17 10:06:50 51°20.133 2°37.137 154.5 0.1 178 21
2006-08-17 10:07:51 51°20.133 2°37.136 152.5 -999 300 21.1
2006-08-17 10:08:51 51°20.133 2°37.135 149.1 -999 289 21.2
2006-08-17 10:09:51 51°20.133 2°37.135 146.8 0.1 10 21.3
2006-08-17 10:10:50 51°20.134 2°37.134 144.2 0.1 54 21.2
2006-08-17 10:11:50 51°20.135 2°37.135 141.6 0.1 76 21
2006-08-17 10:12:50 51°20.134 2°37.136 142.4 -999 77 21
2006-08-17 10:13:50 51°20.133 2°37.137 145.1 -999 49 21
2006-08-17 10:14:50 51°20.133 2°37.137 147.3 0.1 203 21
2006-08-17 10:15:51 51°20.133 2°37.137 148.2 0.1 44 21
2006-08-17 10:16:51 51°20.134 2°37.136 147.4 -999 348 21
2006-08-17 10:17:51 51°20.134 2°37.135 146.3 0.1 46 21
2006-08-17 10:18:50 51°20.134 2°37.135 145.2 0.1 32 21.1
2006-08-17 10:19:51 51°20.134 2°37.134 145.7 0.1 15 21.3
2006-08-17 10:20:50 51°20.134 2°37.134 146.5 0.1 142 21.3
2006-08-17 10:21:51 51°20.132 2°37.134 148 0.2 184 21.1
2006-08-17 10:22:51 51°20.127 2°37.135 150.6 0.3 149 20.7
2006-08-17 10:23:50 51°20.121 2°37.137 153.8 0.4 161 20.4
2006-08-17 10:24:51 51°20.115 2°37.137 156.6 0.4 187 20
2006-08-17 10:25:50 51°20.109 2°37.135 161.5 0.3 199 21.2
2006-08-17 10:26:51 51°20.102 2°37.13 167.4 0.5 204 21.6
2006-08-17 10:27:49 51°20.096 2°37.124 171.5 0.4 227 21.6
2006-08-17 10:28:50 51°20.092 2°37.117 175.6 0.4 227 21.9
2006-08-17 10:29:50 51°20.087 2°37.109 177.6 0.5 218 21.6
2006-08-17 10:30:52 51°20.076 2°37.1 177.1 1 201 21.3
2006-08-17 10:31:52 51°20.043 2°37.109 147.3 3 151 21.2
2006-08-17 10:32:51 51°20.002 2°37.211 117.7 6.2 120 21.4
2006-08-17 10:33:52 51°19.924 2°37.389 125.4 9.1 126 21.2
2006-08-17 10:34:51 51°19.829 2°37.604 126 11 127 20.9
2006-08-17 10:35:52 51°19.711 2°37.846 125.7 11.4 126 21.5
2006-08-17 10:36:51 51°19.602 2°38.089 126.9 11.4 128 22.3
2006-08-17 10:37:52 51°19.48 2°38.331 127.8 11.6 128 23.3
2006-08-17 10:38:51 51°19.362 2°38.569 127.9 11.6 128 25.7
2006-08-17 10:39:52 51°19.246 2°38.823 123.4 11.7 124 27.4
2006-08-17 10:40:52 51°19.129 2°39.073 125.9 11.8 125 27.6
2006-08-17 10:41:51 51°19.015 2°39.322 128.4 11.7 130 25.9
2006-08-17 10:42:52 51°18.903 2°39.581 123.4 11.6 121 24
2006-08-17 10:43:52 51°18.794 2°39.833 127.8 11.4 126 23.7
2006-08-17 10:44:51 51°18.689 2°40.075 124.1 11.3 123 23.9
2006-08-17 10:45:52 51°18.582 2°40.325 125.5 11.3 125 20.4
2006-08-17 10:46:52 51°18.475 2°40.564 125.7 11.2 125 18
2006-08-17 10:47:51 51°18.393 2°40.761 118.5 6.1 117 18.3
2006-08-17 10:48:51 51°18.38 2°40.855 89.1 2.2 83 15.2
2006-08-17 10:49:52 51°18.379 2°40.885 113.1 0.6 119 15.2
2006-08-17 10:50:52 51°18.374 2°40.892 122.3 0.2 140 14.8
2006-08-17 10:51:52 51°18.37 2°40.891 128.5 0.3 215 15
2006-08-17 10:52:52 51°18.367 2°40.884 132.2 0.4 240 15.3
2006-08-17 10:53:51 51°18.366 2°40.875 134.2 0.4 257 15.7
2006-08-17 10:54:51 51°18.365 2°40.864 134.2 0.5 266 15.5
2006-08-17 10:55:51 51°18.365 2°40.85 130.3 0.6 270 14.6
2006-08-17 10:56:51 51°18.365 2°40.833 128.5 0.7 272 11.8
2006-08-17 10:57:51 51°18.366 2°40.816 132 0.6 283 14.9
2006-08-17 10:58:51 51°18.367 2°40.799 134.5 0.7 274 16.4
2006-08-17 10:59:51 51°18.362 2°40.787 150.5 0.8 204 17.1
2006-08-17 11:00:51 51°18.341 2°40.769 194.9 1.6 220 17.4
2006-08-17 11:01:51 51°18.322 2°40.728 230.2 2.4 246 19.7
2006-08-17 11:02:52 51°18.311 2°40.647 266.4 3.1 265 15.4
2006-08-17 11:03:51 51°18.31 2°40.575 269.9 2.6 272 18.4
2006-08-17 11:04:52 51°18.31 2°40.512 269 2.2 273 15.7
2006-08-17 11:05:52 51°18.311 2°40.458 268.2 1.9 272 16.5
2006-08-17 11:06:51 51°18.312 2°40.41 268.9 1.7 273 16.7
2006-08-17 11:07:51 51°18.315 2°40.365 269.6 1.6 274 14.7
2006-08-17 11:08:51 51°18.316 2°40.322 270.2 1.7 276 12.3
2006-08-17 11:09:52 51°18.319 2°40.276 273.2 2 273 14
2006-08-17 11:10:51 51°18.353 2°40.204 348.8 4.2 335 11.9
2006-08-17 11:11:51 51°18.406 2°40.248 73.2 4.2 65 15.3
2006-08-17 11:12:51 51°18.433 2°40.369 77.7 4.4 68 14.2
2006-08-17 11:13:52 51°18.445 2°40.443 90.9 2 84 15.8
2006-08-17 11:14:52 51°18.444 2°40.479 102.6 1.1 97 14.2
2006-08-17 11:15:51 51°18.439 2°40.497 112.3 0.6 127 13.7
2006-08-17 11:16:52 51°18.431 2°40.502 117.5 0.5 182 13.9
2006-08-17 11:17:51 51°18.424 2°40.498 121.3 0.6 213 14.1
2006-08-17 11:18:51 51°18.42 2°40.489 125 0.3 245 14.4
2006-08-17 11:19:51 51°18.415 2°40.475 127.8 0.7 241 15
2006-08-17 11:20:51 51°18.412 2°40.46 132 0.7 254 15.6
2006-08-17 11:21:52 51°18.409 2°40.443 136.5 0.7 259 16
2006-08-17 11:22:51 51°18.407 2°40.424 140.3 0.9 256 16
2006-08-17 11:23:52 51°18.405 2°40.403 144.1 0.9 257 15.8
2006-08-17 11:24:52 51°18.403 2°40.381 147.3 0.9 266 15.4
2006-08-17 11:25:51 51°18.402 2°40.357 149.2 1 267 13.9
2006-08-17 11:26:51 51°18.402 2°40.327 142.9 1.3 263 9.3
2006-08-17 11:27:51 51°18.393 2°40.315 114.7 1 146 9.4
2006-08-17 11:28:51 51°18.409 2°40.379 71.8 4.3 65 15.1
2006-08-17 11:29:51 51°18.43 2°40.57 93.8 9.1 94 17.5
2006-08-17 11:30:51 51°18.414 2°40.845 95.2 10.6 94 13.9
2006-08-17 11:31:51 51°18.387 2°41.126 100.2 10.8 100 17.9
2006-08-17 11:32:51 51°18.377 2°41.41 93.6 10.7 93 20.4
2006-08-17 11:33:51 51°18.365 2°41.697 95.9 10.7 94 22
2006-08-17 11:34:51 51°18.358 2°41.985 93.7 10.9 92 22.5
2006-08-17 11:35:51 51°18.346 2°42.267 97.9 9.8 97 22.9
2006-08-17 11:36:51 51°18.331 2°42.439 95.3 5.3 95 23.1
2006-08-17 11:37:51 51°18.342 2°42.605 80.9 7.7 78 23.2
2006-08-17 11:38:51 51°18.354 2°42.823 89.2 8.5 86 23.4
2006-08-17 11:39:51 51°18.387 2°43.04 84.1 7.7 84 22.8
2006-08-17 11:40:51 51°18.4 2°43.173 67.5 4.3 59 22.5
2006-08-17 11:41:51 51°18.45 2°43.249 60.4 3.8 53 22.4
2006-08-17 11:42:51 51°18.475 2°43.312 62.4 2.3 51 20.1
2006-08-17 11:43:51 51°18.499 2°43.339 45.4 1.4 21 22.6
2006-08-17 11:44:51 51°18.519 2°43.337 27.8 1.1 349 22.4
2006-08-17 11:45:51 51°18.536 2°43.322 18.3 1.1 324 22.3
2006-08-17 11:46:52 51°18.547 2°43.3 7.6 1 300 22.4
2006-08-17 11:47:52 51°18.552 2°43.275 0.9 1 279 22.4
2006-08-17 11:48:52 51°18.54 2°43.25 354.3 1.5 216 22.5
2006-08-17 11:49:52 51°18.514 2°43.23 351.2 1.9 198 22.7
2006-08-17 11:50:52 51°18.479 2°43.214 348.9 2.3 192 -999
2006-08-17 11:51:52 51°18.441 2°43.2 353.1 2.4 194 -999
2006-08-17 11:52:52 51°18.411 2°43.176 3.3 1.6 222 22.5
2006-08-17 11:53:52 51°18.428 2°43.169 38.3 2.6 19 22.4
2006-08-17 11:54:52 51°18.459 2°43.222 79.9 2.5 77 22.5
2006-08-17 11:55:52 51°18.47 2°43.277 68.3 1.6 58 22.2
2006-08-17 11:56:51 51°18.483 2°43.302 62.2 1 42 22.4
2006-08-17 11:57:52 51°18.494 2°43.32 75.6 0.9 70 22.5
2006-08-17 11:58:52 51°18.487 2°43.336 112.4 0.7 165 22.1
2006-08-17 11:59:52 51°18.475 2°43.333 125.5 0.9 210 21.7
2006-08-17 12:00:52 51°18.467 2°43.314 143.5 1 240 21.9
2006-08-17 12:01:52 51°18.46 2°43.288 158.5 1.2 255 22.2
2006-08-17 12:02:52 51°18.456 2°43.257 173 1.2 260 22.2
2006-08-17 12:03:52 51°18.443 2°43.232 159 1.5 203 22.4
2006-08-17 12:04:52 51°18.42 2°43.238 107 1.2 138 22.4
2006-08-17 12:05:52 51°18.437 2°43.27 33.9 2.8 16 22.4
2006-08-17 12:06:52 51°18.475 2°43.301 63.3 2.2 54 21.6
2006-08-17 12:07:52 51°18.477 2°43.332 91.1 0.7 113 21.1
2006-08-17 12:08:52 51°18.469 2°43.333 114.4 0.8 211 22
2006-08-17 12:09:52 51°18.461 2°43.313 133.3 1.2 248 22.1
2006-08-17 12:10:51 51°18.457 2°43.283 147.2 1.2 267 22.3
2006-08-17 12:11:52 51°18.46 2°43.249 158.2 1.4 285 22.2
2006-08-17 12:12:51 51°18.39 2°43.268 153.1 8.1 161 22
2006-08-17 12:13:52 51°18.236 2°43.385 145.2 11.1 151 20.7
2006-08-17 12:14:51 51°18.076 2°43.535 142.9 11.2 149 11.6
2006-08-17 12:15:52 51°17.913 2°43.693 141.5 11.3 148 12.6
2006-08-17 12:16:51 51°17.758 2°43.856 138.9 11.4 146 11.9
2006-08-17 12:17:52 51°17.6 2°44.035 139.6 11.6 146 16
2006-08-17 12:18:52 51°17.453 2°44.227 135 11.5 142 15.8
2006-08-17 12:19:51 51°17.307 2°44.414 132.1 11.3 137 15.1
2006-08-17 12:20:51 51°17.173 2°44.624 127.7 11.2 135 15.3
2006-08-17 12:21:51 51°17.036 2°44.826 132 11.2 138 13
2006-08-17 12:22:51 51°16.905 2°45.035 127 11 133 11.1
2006-08-17 12:23:51 51°16.785 2°45.26 123.6 11 128 11.2
2006-08-17 12:24:52 51°16.665 2°45.496 125 11.3 129 11.1
2006-08-17 12:25:52 51°16.556 2°45.74 121 11.4 125 9.7
2006-08-17 12:26:52 51°16.446 2°45.985 121.7 11.4 125 9.3
2006-08-17 12:27:52 51°16.336 2°46.229 121.5 11.3 125 8.8
2006-08-17 12:28:51 51°16.244 2°46.482 110.7 11.3 114 9.4
2006-08-17 12:29:52 51°16.19 2°46.767 98 10.8 100 11.2
2006-08-17 12:30:52 51°16.152 2°47.047 102.3 10.8 104 13.1
2006-08-17 12:31:52 51°16.103 2°47.319 105.6 10.7 108 14.7
2006-08-17 12:32:51 51°16.047 2°47.584 108.5 10.8 111 15
2006-08-17 12:33:51 51°15.988 2°47.853 107 10.7 111 14.5
2006-08-17 12:34:52 51°15.931 2°48.128 98.5 10.6 100 13.8
2006-08-17 12:35:51 51°15.905 2°48.404 99.1 10.8 102 12.8
2006-08-17 12:36:52 51°15.856 2°48.688 102 11 105 11.1
2006-08-17 12:37:51 51°15.815 2°48.965 101.1 10.9 104 10.3
2006-08-17 12:38:51 51°15.775 2°49.246 100.8 10.9 102 9.7
2006-08-17 12:39:52 51°15.734 2°49.533 100.8 10.9 103 10.3
2006-08-17 12:40:51 51°15.696 2°49.812 101.3 10.8 102 11.8
2006-08-17 12:41:51 51°15.664 2°50.093 99.8 10.8 104 12.2
2006-08-17 12:42:51 51°15.612 2°50.369 104.7 10.9 107 12.1
2006-08-17 12:43:52 51°15.557 2°50.649 104.7 10.8 106 12
2006-08-17 12:44:51 51°15.522 2°50.922 99.4 10.8 101 12
2006-08-17 12:45:52 51°15.476 2°51.205 104.5 10.8 107 11.9
2006-08-17 12:46:52 51°15.426 2°51.481 103.2 10.9 105 11.7
2006-08-17 12:47:52 51°15.374 2°51.758 103.7 10.9 106 11.5
2006-08-17 12:48:51 51°15.325 2°52.03 102.4 10.8 105 11
2006-08-17 12:49:52 51°15.277 2°52.313 103 10.9 107 10.5
2006-08-17 12:50:52 51°15.227 2°52.587 102.4 10.8 106 10
2006-08-17 12:51:52 51°15.186 2°52.863 103.1 10.6 107 9.7
2006-08-17 12:52:52 51°15.129 2°53.133 104.8 10.7 109 9.3
2006-08-17 12:53:52 51°15.067 2°53.38 108.7 10.2 112 9
2006-08-17 12:54:52 51°14.986 2°53.634 115.8 10.9 120 8.5
2006-08-17 12:55:52 51°14.879 2°53.875 121.7 11.4 127 8.3
2006-08-17 12:56:52 51°14.766 2°54.114 121.8 11.3 125 8.9
2006-08-17 12:57:52 51°14.658 2°54.357 121.1 11.1 126 9
2006-08-17 12:58:52 51°14.553 2°54.602 121.5 11.1 126 9.2
2006-08-17 12:59:52 51°14.453 2°54.841 120.3 10.5 122 9.8
2006-08-17 13:00:52 51°14.357 2°55.071 125.2 10.5 125 9.6
2006-08-17 13:01:52 51°14.246 2°55.28 135.7 9.7 135 9.4
2006-08-17 13:02:52 51°14.128 2°55.417 151.5 8 151 9.3
2006-08-17 13:03:52 51°14.035 2°55.49 155.7 5.8 154 9.4
2006-08-17 13:04:52 51°13.945 2°55.557 157.5 6.1 155 9.9
2006-08-17 13:05:52 51°13.851 2°55.623 159.3 6.1 157 9.4
2006-08-17 13:06:52 51°13.762 2°55.699 149.3 6 145 9.3
2006-08-17 13:07:52 51°13.7 2°55.816 127.5 5.7 125 9.5
2006-08-17 13:08:52 51°13.651 2°55.928 127.7 4.5 125 8.2
2006-08-17 13:09:51 51°13.619 2°56.025 116.2 4 113 8.1
2006-08-17 13:10:52 51°13.604 2°56.094 117.9 0.9 111 5
2006-08-17 13:11:51 51°13.601 2°56.098 122 -999 84 5.3